createdAt,value
2022-07-27T00:01:17.441Z,101045.03
2022-07-27T00:03:45.243Z,101043.16
2022-07-27T00:06:12.688Z,101037.78
2022-07-27T00:08:40.136Z,101034.94
2022-07-27T00:11:09.148Z,101045.69
2022-07-27T00:13:36.626Z,101050.09
2022-07-27T00:16:05.994Z,101049.28
2022-07-27T00:18:33.456Z,101049.94
2022-07-27T00:21:00.997Z,101050.78
2022-07-27T00:23:28.453Z,101042.88
2022-07-27T00:25:55.901Z,101052.78
2022-07-27T00:28:23.366Z,101051.06
2022-07-27T00:30:50.822Z,101056.44
2022-07-27T00:33:19.561Z,101063.53
2022-07-27T00:35:47.006Z,101057.13
2022-07-27T00:38:14.447Z,101052.47
2022-07-27T00:40:41.897Z,101056.97
2022-07-27T00:43:09.343Z,101048.75
2022-07-27T00:45:36.790Z,101044.41
2022-07-27T00:48:04.579Z,101047.59
2022-07-27T00:50:33.350Z,101046.72
2022-07-27T00:53:00.811Z,101041.72
2022-07-27T00:55:28.469Z,101049.78
2022-07-27T00:57:59.064Z,101050.59
2022-07-27T01:00:27.241Z,101056.97
2022-07-27T01:02:54.826Z,101054.28
2022-07-27T01:05:36.135Z,101055.16
2022-07-27T01:08:06.747Z,101056.81
2022-07-27T01:10:34.347Z,101060.53
2022-07-27T01:13:01.785Z,101060.53
2022-07-27T01:15:29.230Z,101067.56
2022-07-27T01:17:56.667Z,101064.03
2022-07-27T01:20:24.220Z,101061.03
2022-07-27T01:22:52.949Z,101059.16
2022-07-27T01:25:20.403Z,101065.03
2022-07-27T01:27:47.841Z,101066.72
2022-07-27T01:30:31.066Z,101059.50
2022-07-27T01:33:02.319Z,101056.81
2022-07-27T01:35:29.812Z,101059.66
2022-07-27T01:37:58.583Z,101056.00
2022-07-27T01:40:26.048Z,101055.50
2022-07-27T01:42:53.497Z,101062.84
2022-07-27T01:45:21.691Z,101066.41
2022-07-27T01:47:49.128Z,101075.28
2022-07-27T01:50:16.613Z,101079.31
2022-07-27T01:52:44.050Z,101066.88
2022-07-27T01:55:12.829Z,101065.19
2022-07-27T01:57:40.406Z,101058.00
2022-07-27T02:00:10.473Z,101055.97
2022-07-27T02:02:40.818Z,101061.19
2022-07-27T02:05:11.727Z,101071.25
2022-07-27T02:07:40.132Z,101070.56
2022-07-27T02:10:07.814Z,101069.03
2022-07-27T02:12:35.610Z,101067.50
2022-07-27T02:15:05.721Z,101065.00
2022-07-27T02:17:33.622Z,101071.06
2022-07-27T02:20:02.695Z,101074.56
2022-07-27T02:22:30.136Z,101071.72
2022-07-27T02:24:57.585Z,101070.03
2022-07-27T02:27:25.088Z,101072.56
2022-07-27T02:29:54.116Z,101076.81
2022-07-27T02:32:21.656Z,101075.94
2022-07-27T02:34:49.110Z,101075.94
2022-07-27T02:37:16.562Z,101075.94
2022-07-27T02:39:44.085Z,101074.13
2022-07-27T02:42:11.522Z,101082.34
2022-07-27T02:44:38.994Z,101077.94
2022-07-27T02:47:07.882Z,101068.91
2022-07-27T02:49:35.334Z,101076.25
2022-07-27T02:52:02.765Z,101070.03
2022-07-27T02:54:32.394Z,101066.50
2022-07-27T02:57:02.610Z,101073.75
2022-07-27T02:59:30.157Z,101073.59
2022-07-27T03:01:57.692Z,101077.09
2022-07-27T03:04:26.899Z,101074.56
2022-07-27T03:06:54.437Z,101079.13
2022-07-27T03:09:32.965Z,101079.44
2022-07-27T03:12:01.077Z,101080.94
2022-07-27T03:14:28.521Z,101078.25
2022-07-27T03:16:55.960Z,101076.59
2022-07-27T03:19:28.301Z,101084.66
2022-07-27T03:21:58.809Z,101081.97
2022-07-27T03:24:26.241Z,101084.50
2022-07-27T03:26:53.700Z,101087.34
2022-07-27T03:29:21.485Z,101091.38
2022-07-27T03:31:49.007Z,101090.50
2022-07-27T03:34:17.491Z,101098.41
2022-07-27T03:36:46.080Z,101101.09
2022-07-27T03:39:15.173Z,101100.09
2022-07-27T03:41:42.809Z,101098.41
2022-07-27T03:44:10.283Z,101095.06
2022-07-27T03:46:37.883Z,101100.44
2022-07-27T03:49:14.255Z,101092.53
2022-07-27T03:51:42.443Z,101100.44
2022-07-27T03:54:09.912Z,101101.56
2022-07-27T03:56:38.646Z,101097.91
2022-07-27T03:59:06.322Z,101102.44
2022-07-27T04:01:33.851Z,101106.94
2022-07-27T04:04:01.337Z,101102.28
2022-07-27T04:06:28.768Z,101097.06
2022-07-27T04:08:59.710Z,101084.47
2022-07-27T04:11:36.947Z,101091.53
2022-07-27T04:14:12.804Z,101084.31
2022-07-27T04:16:40.612Z,101082.63
2022-07-27T04:19:08.188Z,101073.88
2022-07-27T04:21:36.142Z,101078.44
2022-07-27T04:24:03.613Z,101078.44
2022-07-27T04:26:31.573Z,101084.47
2022-07-27T04:28:59.030Z,101086.16
2022-07-27T04:31:27.768Z,101096.41
2022-07-27T04:33:55.229Z,101094.03
2022-07-27T04:36:22.674Z,101085.81
2022-07-27T04:38:50.118Z,101080.44
2022-07-27T04:41:17.567Z,101088.50
2022-07-27T04:43:45.021Z,101086.66
2022-07-27T04:46:15.340Z,101095.38
2022-07-27T04:48:48.804Z,101092.03
2022-07-27T04:51:17.117Z,101091.19
2022-07-27T04:53:53.966Z,101087.81
2022-07-27T04:56:26.016Z,101093.19
2022-07-27T04:58:53.484Z,101099.09
2022-07-27T05:01:22.808Z,101089.16
2022-07-27T05:03:51.838Z,101093.72
2022-07-27T05:06:19.333Z,101097.75
2022-07-27T05:08:46.769Z,101093.53
2022-07-27T05:11:14.227Z,101100.31
2022-07-27T05:13:41.708Z,101104.78
2022-07-27T05:16:10.564Z,101113.88
2022-07-27T05:18:38.425Z,101110.50
2022-07-27T05:21:07.624Z,101116.22
2022-07-27T05:23:35.289Z,101116.88
2022-07-27T05:26:02.750Z,101120.91
2022-07-27T05:28:30.182Z,101122.94
2022-07-27T05:30:57.704Z,101121.22
2022-07-27T05:33:25.409Z,101124.94
2022-07-27T05:35:52.882Z,101134.00
2022-07-27T05:38:22.264Z,101136.00
2022-07-27T05:40:49.711Z,101144.75
2022-07-27T05:43:17.178Z,101147.41
2022-07-27T05:45:44.941Z,101138.22
2022-07-27T05:48:12.404Z,101143.06
2022-07-27T05:50:39.917Z,101141.03
2022-07-27T05:53:07.366Z,101140.03
2022-07-27T05:55:36.093Z,101150.13
2022-07-27T05:58:03.528Z,101153.47
2022-07-27T06:00:30.965Z,101158.16
2022-07-27T06:02:58.411Z,101156.63
2022-07-27T06:05:25.964Z,101152.09
2022-07-27T06:08:06.368Z,101162.84
2022-07-27T06:10:34.347Z,101156.78
2022-07-27T06:13:03.855Z,101156.78
2022-07-27T06:15:31.389Z,101164.84
2022-07-27T06:17:58.880Z,101161.53
2022-07-27T06:20:27.233Z,101161.53
2022-07-27T06:22:57.113Z,101164.91
2022-07-27T06:25:34.321Z,101153.81
2022-07-27T06:28:04.780Z,101152.28
2022-07-27T06:30:32.296Z,101152.81
2022-07-27T06:32:59.924Z,101157.31
2022-07-27T06:35:27.907Z,101159.66
2022-07-27T06:37:55.398Z,101158.84
2022-07-27T06:40:26.277Z,101158.16
2022-07-27T06:42:56.082Z,101159.50
2022-07-27T06:45:24.886Z,101165.56
2022-07-27T06:47:52.400Z,101160.50
2022-07-27T06:50:20.293Z,101170.19
2022-07-27T06:52:47.860Z,101161.28
2022-07-27T06:55:15.316Z,101174.53
2022-07-27T06:57:43.222Z,101162.81
2022-07-27T07:00:11.918Z,101169.53
2022-07-27T07:02:50.803Z,101172.88
2022-07-27T07:05:18.255Z,101174.53
2022-07-27T07:07:45.707Z,101173.88
2022-07-27T07:10:13.161Z,101177.22
2022-07-27T07:12:40.593Z,101174.03
2022-07-27T07:15:08.864Z,101172.16
2022-07-27T07:17:36.796Z,101171.84
2022-07-27T07:20:06.089Z,101178.75
2022-07-27T07:22:34.430Z,101170.53
2022-07-27T07:25:03.153Z,101173.91
2022-07-27T07:27:30.822Z,101175.56
2022-07-27T07:29:58.298Z,101177.06
2022-07-27T07:32:31.479Z,101170.88
2022-07-27T07:35:00.989Z,101182.13
2022-07-27T07:37:31.662Z,101180.56
2022-07-27T07:40:32.185Z,101173.22
2022-07-27T07:42:50.190Z,101175.72
2022-07-27T07:45:17.740Z,101168.81
2022-07-27T07:47:45.231Z,101179.38
2022-07-27T07:50:12.731Z,101174.84
2022-07-27T07:52:41.481Z,101177.38
2022-07-27T07:55:09.609Z,101180.56
2022-07-27T07:57:37.140Z,101175.72
2022-07-27T08:00:05.010Z,101181.78
2022-07-27T08:02:46.119Z,101172.19
2022-07-27T08:05:13.763Z,101174.38
2022-07-27T08:07:42.634Z,101180.41
2022-07-27T08:10:10.657Z,101180.22
2022-07-27T08:12:38.398Z,101178.56
2022-07-27T08:15:06.609Z,101177.22
2022-07-27T08:17:34.091Z,101179.59
2022-07-27T08:20:01.574Z,101179.06
2022-07-27T08:22:29.122Z,101176.03
2022-07-27T08:24:57.957Z,101170.00
2022-07-27T08:27:25.405Z,101180.25
2022-07-27T08:29:52.911Z,101184.47
2022-07-27T08:32:21.254Z,101178.94
2022-07-27T08:34:48.781Z,101188.47
2022-07-27T08:37:16.252Z,101190.66
2022-07-27T08:42:32.553Z,101197.75
2022-07-27T08:45:00.258Z,101191.03
2022-07-27T08:47:27.783Z,101194.72
2022-07-27T08:49:55.360Z,101187.69
2022-07-27T08:52:22.837Z,101201.94
2022-07-27T08:54:50.314Z,101198.09
2022-07-27T08:57:17.804Z,101198.06
2022-07-27T08:59:46.611Z,101196.22
2022-07-27T09:02:14.453Z,101197.91
2022-07-27T09:04:42.062Z,101195.72
2022-07-27T09:07:09.563Z,101197.75
2022-07-27T09:09:44.670Z,101199.25
2022-07-27T09:12:12.332Z,101196.56
2022-07-27T09:14:40.786Z,101201.47
2022-07-27T09:20:17.365Z,101203.13
2022-07-27T09:22:47.085Z,101194.22
2022-07-27T09:25:15.549Z,101205.81
2022-07-27T09:27:43.566Z,101197.41
2022-07-27T09:30:12.125Z,101190.97
2022-07-27T09:32:41.335Z,101200.88
2022-07-27T09:35:18.176Z,101201.59
2022-07-27T09:37:45.811Z,101197.41
2022-07-27T09:40:15.169Z,101195.19
2022-07-27T09:43:14.510Z,101193.00
2022-07-27T09:45:33.844Z,101203.59
2022-07-27T09:48:10.665Z,101200.94
2022-07-27T09:50:53.036Z,101193.72
2022-07-27T09:53:42.511Z,101188.50
2022-07-27T09:56:11.613Z,101191.66
2022-07-27T09:58:44.330Z,101197.91
2022-07-27T10:01:12.817Z,101187.13
2022-07-27T10:03:42.115Z,101193.31
2022-07-27T10:06:09.942Z,101187.47
2022-07-27T10:08:38.433Z,101192.69
2022-07-27T10:11:07.353Z,101191.03
2022-07-27T10:13:43.527Z,101198.41
2022-07-27T10:16:13.813Z,101191.66
2022-07-27T10:18:55.598Z,101198.41
2022-07-27T10:21:23.564Z,101198.94
2022-07-27T10:23:58.577Z,101193.38
2022-07-27T10:26:33.985Z,101197.56
2022-07-27T10:29:02.548Z,101188.03
2022-07-27T10:31:31.148Z,101201.13
2022-07-27T10:34:01.101Z,101199.13
2022-07-27T10:36:50.075Z,101189.53
2022-07-27T10:39:30.125Z,101184.00
2022-07-27T10:42:18.936Z,101185.03
2022-07-27T10:44:53.800Z,101193.75
2022-07-27T10:47:29.566Z,101192.38
2022-07-27T10:50:21.007Z,101189.69
2022-07-27T10:52:49.083Z,101186.66
2022-07-27T10:55:44.498Z,101185.00
2022-07-27T10:58:46.476Z,101193.41
2022-07-27T11:01:14.670Z,101179.66
2022-07-27T11:03:47.362Z,101183.59
2022-07-27T11:06:41.885Z,101176.22
2022-07-27T11:10:00.326Z,101181.75
2022-07-27T11:12:00.183Z,101181.06
2022-07-27T11:14:30.657Z,101178.34
2022-07-27T11:17:17.262Z,101170.16
2022-07-27T11:19:46.114Z,101174.34
2022-07-27T11:22:28.708Z,101177.31
2022-07-27T11:24:56.561Z,101173.13
2022-07-27T11:27:25.447Z,101176.97
2022-07-27T11:29:53.066Z,101172.47
2022-07-27T11:32:21.034Z,101169.25
2022-07-27T11:34:48.618Z,101163.53
2022-07-27T11:37:19.116Z,101162.16
2022-07-27T11:40:03.258Z,101165.19
2022-07-27T11:42:37.801Z,101166.13
2022-07-27T11:45:06.325Z,101162.13
2022-07-27T11:47:34.111Z,101169.38
2022-07-27T11:50:05.756Z,101166.19
2022-07-27T11:52:34.590Z,101172.91
2022-07-27T11:55:02.046Z,101170.38
2022-07-27T11:57:31.919Z,101176.94
2022-07-27T11:59:59.395Z,101175.25
2022-07-27T12:02:27.253Z,101168.84
2022-07-27T12:05:00.428Z,101177.91
2022-07-27T12:07:30.618Z,101175.41
2022-07-27T12:09:59.966Z,101171.53
2022-07-27T12:12:27.750Z,101168.34
2022-07-27T12:14:56.730Z,101168.00
2022-07-27T12:17:28.338Z,101173.91
2022-07-27T12:19:58.607Z,101179.59
2022-07-27T12:22:31.003Z,101169.47
2022-07-27T12:25:00.722Z,101169.16
2022-07-27T12:27:28.880Z,101170.19
2022-07-27T12:30:08.568Z,101163.50
2022-07-27T12:32:37.359Z,101171.91
2022-07-27T12:35:23.280Z,101163.00
2022-07-27T12:37:57.295Z,101157.78
2022-07-27T12:40:26.087Z,101155.44
2022-07-27T12:42:57.808Z,101152.44
2022-07-27T12:45:29.594Z,101158.34
2022-07-27T12:48:05.248Z,101155.66
2022-07-27T12:50:33.159Z,101156.78
2022-07-27T12:53:00.629Z,101161.19
2022-07-27T12:55:29.451Z,101159.31
2022-07-27T12:57:57.342Z,101156.78
2022-07-27T13:00:29.400Z,101162.16
2022-07-27T13:03:00.787Z,101160.16
2022-07-27T13:05:28.377Z,101164.53
2022-07-27T13:07:55.864Z,101166.03
2022-07-27T13:10:23.335Z,101154.78
2022-07-27T13:12:52.113Z,101178.09
2022-07-27T13:15:19.841Z,101165.50
2022-07-27T13:17:47.467Z,101168.97
2022-07-27T13:20:15.038Z,101178.25
2022-07-27T13:22:42.570Z,101170.69
2022-07-27T13:25:16.046Z,101168.84
2022-07-27T13:27:44.426Z,101164.13
2022-07-27T13:30:14.445Z,101165.09
2022-07-27T13:32:42.030Z,101170.19
2022-07-27T13:35:10.139Z,101173.22
2022-07-27T13:37:37.667Z,101156.94
2022-07-27T13:40:06.143Z,101160.16
2022-07-27T13:42:33.592Z,101159.97
2022-07-27T13:45:09.841Z,101155.44
2022-07-27T13:47:39.759Z,101162.16
2022-07-27T13:50:13.356Z,101160.66
2022-07-27T13:52:46.093Z,101164.84
2022-07-27T13:55:14.048Z,101158.84
2022-07-27T13:57:41.529Z,101156.31
2022-07-27T14:00:10.203Z,101156.97
2022-07-27T14:02:39.606Z,101145.91
2022-07-27T14:05:08.518Z,101158.16
2022-07-27T14:07:35.964Z,101158.84
2022-07-27T14:10:20.808Z,101154.63
2022-07-27T14:12:48.311Z,101152.09
2022-07-27T14:15:15.882Z,101164.50
2022-07-27T14:17:44.706Z,101162.31
2022-07-27T14:20:13.284Z,101161.50
2022-07-27T14:22:40.746Z,101159.66
2022-07-27T14:25:08.800Z,101156.78
2022-07-27T14:27:37.575Z,101149.41
2022-07-27T14:30:06.562Z,101156.47
2022-07-27T14:32:34.029Z,101153.63
2022-07-27T14:35:02.866Z,101149.91
2022-07-27T14:37:30.332Z,101141.03
2022-07-27T14:39:58.444Z,101149.09
2022-07-27T14:42:26.099Z,101144.03
2022-07-27T14:44:53.724Z,101143.69
2022-07-27T14:47:21.303Z,101146.19
2022-07-27T14:49:48.832Z,101150.22
2022-07-27T14:52:18.692Z,101147.41
2022-07-27T14:54:47.134Z,101146.88
2022-07-27T14:57:14.720Z,101143.22
2022-07-27T14:59:42.646Z,101151.44
2022-07-27T15:02:10.370Z,101155.66
2022-07-27T15:04:37.881Z,101158.84
2022-07-27T15:07:05.346Z,101161.53
2022-07-27T15:09:34.098Z,101160.66
2022-07-27T15:12:01.695Z,101163.19
2022-07-27T15:14:29.609Z,101159.84
2022-07-27T15:16:57.068Z,101161.84
2022-07-27T15:19:24.512Z,101159.47
2022-07-27T15:21:52.412Z,101155.13
2022-07-27T15:24:19.874Z,101160.47
2022-07-27T15:26:48.605Z,101156.94
2022-07-27T15:29:16.352Z,101148.88
2022-07-27T15:31:44.172Z,101153.75
2022-07-27T15:34:11.637Z,101156.28
2022-07-27T15:36:45.870Z,101156.13
2022-07-27T15:39:16.357Z,101154.44
2022-07-27T15:41:44.074Z,101154.06
2022-07-27T15:44:12.805Z,101154.59
2022-07-27T15:46:40.289Z,101154.44
2022-07-27T15:49:08.012Z,101149.06
2022-07-27T15:51:35.540Z,101147.25
2022-07-27T15:54:02.985Z,101153.44
2022-07-27T15:56:30.496Z,101150.59
2022-07-27T15:58:57.935Z,101150.44
2022-07-27T16:01:35.402Z,101151.25
2022-07-27T16:04:03.512Z,101147.38
2022-07-27T16:06:34.086Z,101145.03
2022-07-27T16:09:05.842Z,101146.38
2022-07-27T16:11:33.428Z,101148.06
2022-07-27T16:14:00.906Z,101149.06
2022-07-27T16:16:31.369Z,101142.69
2022-07-27T16:19:12.710Z,101146.38
2022-07-27T16:21:54.713Z,101145.22
2022-07-27T16:24:23.265Z,101145.22
2022-07-27T16:26:50.700Z,101133.66
2022-07-27T16:29:18.180Z,101128.28
2022-07-27T16:31:47.078Z,101129.94
2022-07-27T16:34:14.634Z,101131.63
2022-07-27T16:36:42.158Z,101125.59
2022-07-27T16:39:09.892Z,101131.63
2022-07-27T16:41:37.682Z,101125.59
2022-07-27T16:44:05.471Z,101120.03
2022-07-27T16:46:32.962Z,101120.53
2022-07-27T16:49:01.816Z,101119.19
2022-07-27T16:51:29.380Z,101119.19
2022-07-27T16:53:56.891Z,101118.88
2022-07-27T16:56:24.574Z,101118.88
2022-07-27T16:58:52.023Z,101117.19
2022-07-27T17:01:22.490Z,101109.13
2022-07-27T17:03:54.148Z,101116.19
2022-07-27T17:06:23.017Z,101109.84
2022-07-27T17:08:50.474Z,101116.19
2022-07-27T17:11:21.722Z,101119.88
2022-07-27T17:13:49.646Z,101115.00
2022-07-27T17:16:17.505Z,101113.00
2022-07-27T17:18:45.094Z,101109.28
2022-07-27T17:21:13.222Z,101105.44
2022-07-27T17:23:42.195Z,101111.66
2022-07-27T17:26:10.185Z,101113.00
2022-07-27T17:28:39.543Z,101109.47
2022-07-27T17:31:08.012Z,101111.31
2022-07-27T17:33:35.565Z,101105.78
2022-07-27T17:36:03.095Z,101112.16
2022-07-27T17:38:30.566Z,101106.78
2022-07-27T17:40:59.415Z,101107.47
2022-07-27T17:43:26.889Z,101102.25
2022-07-27T17:45:54.406Z,101106.09
2022-07-27T17:48:21.937Z,101105.09
2022-07-27T17:50:51.741Z,101109.66
2022-07-27T17:53:19.197Z,101104.28
2022-07-27T17:55:46.702Z,101111.31
2022-07-27T17:58:15.480Z,101104.44
2022-07-27T18:00:42.963Z,101115.34
2022-07-27T18:03:12.585Z,101108.28
2022-07-27T18:05:40.070Z,101108.13
2022-07-27T18:08:07.866Z,101109.66
2022-07-27T18:10:38.546Z,101114.16
2022-07-27T18:13:06.258Z,101114.31
2022-07-27T18:15:51.230Z,101120.53
2022-07-27T18:18:20.091Z,101119.34
2022-07-27T18:20:48.358Z,101121.22
2022-07-27T18:23:15.967Z,101119.53
2022-07-27T18:25:44.199Z,101131.13
2022-07-27T18:28:11.722Z,101128.44
2022-07-27T18:30:40.536Z,101126.59
2022-07-27T18:33:08.015Z,101127.41
2022-07-27T18:35:35.912Z,101126.59
2022-07-27T18:38:04.558Z,101123.06
2022-07-27T18:40:32.053Z,101136.50
2022-07-27T18:42:59.540Z,101131.97
2022-07-27T18:45:34.549Z,101130.25
2022-07-27T18:48:03.793Z,101131.97
2022-07-27T18:50:35.614Z,101141.00
2022-07-27T18:53:06.222Z,101140.19
2022-07-27T18:55:33.767Z,101138.31
2022-07-27T18:58:01.221Z,101143.84
2022-07-27T19:00:28.703Z,101144.72
2022-07-27T19:02:58.281Z,101151.75
2022-07-27T19:05:32.808Z,101143.84
2022-07-27T19:08:11.478Z,101148.38
2022-07-27T19:10:41.204Z,101156.28
2022-07-27T19:13:09.000Z,101157.47
2022-07-27T19:15:37.129Z,101148.88
2022-07-27T19:18:04.626Z,101150.72
2022-07-27T19:20:33.509Z,101161.47
2022-07-27T19:23:00.977Z,101154.25
2022-07-27T19:25:30.149Z,101163.16
2022-07-27T19:27:57.632Z,101160.47
2022-07-27T19:30:25.271Z,101175.56
2022-07-27T19:32:53.273Z,101174.72
2022-07-27T19:35:20.717Z,101172.88
2022-07-27T19:37:49.478Z,101177.56
2022-07-27T19:43:04.458Z,101180.41
2022-07-27T19:45:31.957Z,101178.41
2022-07-27T19:48:01.158Z,101179.44
2022-07-27T19:50:28.713Z,101183.78
2022-07-27T19:52:57.509Z,101182.13
2022-07-27T19:55:25.085Z,101180.41
2022-07-27T19:57:52.670Z,101179.59
2022-07-27T20:00:20.195Z,101190.31
2022-07-27T20:02:48.250Z,101188.47
2022-07-27T20:05:15.827Z,101190.31
2022-07-27T20:07:43.395Z,101193.00
2022-07-27T20:10:12.292Z,101196.53
2022-07-27T20:12:39.866Z,101200.22
2022-07-27T20:15:08.174Z,101196.69
2022-07-27T20:17:37.784Z,101203.75
2022-07-27T20:20:08.893Z,101213.50
2022-07-27T20:22:36.798Z,101206.44
2022-07-27T20:25:04.680Z,101211.81
2022-07-27T20:27:36.302Z,101210.81
2022-07-27T20:30:03.851Z,101216.19
2022-07-27T20:32:31.342Z,101220.53
2022-07-27T20:34:58.796Z,101232.31
2022-07-27T20:37:26.246Z,101227.09
2022-07-27T20:39:53.722Z,101230.59
2022-07-27T20:42:21.294Z,101240.34
2022-07-27T20:44:50.121Z,101226.94
2022-07-27T20:47:17.732Z,101235.81
2022-07-27T20:49:45.240Z,101238.34
2022-07-27T20:52:12.769Z,101241.69
2022-07-27T20:54:40.345Z,101236.50
2022-07-27T20:57:07.847Z,101251.78
2022-07-27T20:59:35.390Z,101248.06
2022-07-27T21:02:04.174Z,101245.06
2022-07-27T21:04:31.647Z,101243.56
2022-07-27T21:06:59.089Z,101249.59
2022-07-27T21:09:26.530Z,101252.44
2022-07-27T21:11:54.014Z,101255.28
2022-07-27T21:14:21.562Z,101252.44
2022-07-27T21:16:49.122Z,101259.50
2022-07-27T21:19:19.163Z,101257.50
2022-07-27T21:21:46.700Z,101277.28
2022-07-27T21:24:18.388Z,101269.06
2022-07-27T21:26:48.672Z,101268.91
2022-07-27T21:29:16.558Z,101267.94
2022-07-27T21:31:46.389Z,101270.25
2022-07-27T21:34:14.512Z,101269.28
2022-07-27T21:36:43.728Z,101267.56
2022-07-27T21:39:11.178Z,101270.25
2022-07-27T21:41:39.381Z,101277.69
2022-07-27T21:44:06.842Z,101268.66
2022-07-27T21:46:34.273Z,101281.06
2022-07-27T21:49:01.827Z,101282.06
2022-07-27T21:51:29.302Z,101285.06
2022-07-27T21:53:58.065Z,101286.25
2022-07-27T21:56:25.526Z,101290.44
2022-07-27T21:58:53.029Z,101284.22
2022-07-27T22:01:20.580Z,101294.13
2022-07-27T22:03:48.230Z,101296.66
2022-07-27T22:06:15.745Z,101292.47
2022-07-27T22:08:43.385Z,101302.38
2022-07-27T22:11:12.146Z,101302.69
2022-07-27T22:13:39.670Z,101305.38
2022-07-27T22:16:07.296Z,101300.66
2022-07-27T22:18:34.854Z,101303.19
2022-07-27T22:21:02.307Z,101296.66
2022-07-27T22:23:29.761Z,101303.72
2022-07-27T22:25:58.158Z,101299.66
2022-07-27T22:28:27.013Z,101299.81
2022-07-27T22:31:15.593Z,101298.81
2022-07-27T22:33:44.494Z,101298.97
2022-07-27T22:36:12.341Z,101305.03
2022-07-27T22:38:39.797Z,101311.06
2022-07-27T22:41:07.345Z,101308.56
2022-07-27T22:43:36.292Z,101315.59
2022-07-27T22:46:03.906Z,101315.09
2022-07-27T22:48:31.466Z,101314.78
2022-07-27T22:50:58.931Z,101308.56
2022-07-27T22:53:26.380Z,101314.25
2022-07-27T22:55:53.944Z,101314.25
2022-07-27T22:58:21.721Z,101311.41
2022-07-27T23:00:53.444Z,101312.25
2022-07-27T23:03:23.376Z,101306.56
2022-07-27T23:05:50.821Z,101305.69
2022-07-27T23:08:18.300Z,101311.06
2022-07-27T23:10:48.411Z,101316.44
2022-07-27T23:13:16.039Z,101316.63
2022-07-27T23:15:43.531Z,101315.94
2022-07-27T23:18:12.317Z,101310.72
2022-07-27T23:20:40.421Z,101313.09
2022-07-27T23:23:15.409Z,101314.25
2022-07-27T23:25:44.345Z,101312.25
2022-07-27T23:28:12.118Z,101319.47
2022-07-27T23:30:39.611Z,101312.56
2022-07-27T23:33:07.092Z,101323.31
2022-07-27T23:35:35.858Z,101321.44
2022-07-27T23:38:03.310Z,101312.56
2022-07-27T23:40:30.754Z,101320.78
2022-07-27T23:42:58.414Z,101321.63
2022-07-27T23:45:26.404Z,101326.16
2022-07-27T23:47:53.850Z,101326.31
2022-07-27T23:50:21.415Z,101331.53
2022-07-27T23:52:50.233Z,101323.63
2022-07-27T23:55:17.672Z,101338.06
2022-07-27T23:57:45.144Z,101344.41
